Time;durP1;ratioP1;P1;durP2;ratioP2;P2;SDS_P1;SDS_P2;PMS_P1;PMS_P2;Temp;Humidity;BMP_temperature;BMP_pressure;BME280_temperature;BME280_humidity;BME280_pressure;Samples;Min_cycle;Max_cycle;Signal;HPM_P1;HPM_P2
2023/04/22 00:00:53;;;;;;;10.27;5.30;;;;;;;18.09;32.39;101162.22;5009316;28;97060;-69
2023/04/22 00:03:20;;;;;;;12.68;5.18;;;;;;;18.12;32.08;101155.81;5001912;28;96895;-69
2023/04/22 00:05:48;;;;;;;7.53;5.30;;;;;;;18.05;32.37;101157.19;5002630;28;99244;-70
2023/04/22 00:08:14;;;;;;;8.10;5.53;;;;;;;17.96;32.61;101161.25;4994793;28;99937;-70
2023/04/22 00:10:41;;;;;;;6.93;4.75;;;;;;;18.09;32.26;101148.00;5003503;28;96820;-69
2023/04/22 00:13:07;;;;;;;9.15;4.63;;;;;;;18.01;32.53;101150.28;5008653;28;96721;-70
2023/04/22 00:15:34;;;;;;;6.65;4.82;;;;;;;18.04;32.42;101142.06;5008346;28;98510;-70
2023/04/22 00:18:00;;;;;;;11.18;5.57;;;;;;;18.04;32.34;101137.59;5006839;28;101040;-70
2023/04/22 00:20:26;;;;;;;6.38;5.38;;;;;;;17.97;32.71;101132.69;5002252;28;97599;-69
2023/04/22 00:22:54;;;;;;;7.18;5.18;;;;;;;18.09;32.43;101138.16;5017421;28;96913;-71
2023/04/22 00:25:21;;;;;;;9.40;5.60;;;;;;;18.00;32.61;101130.69;5006006;28;97890;-69
2023/04/22 00:27:47;;;;;;;7.35;5.22;;;;;;;17.84;32.81;101130.75;5009195;28;98848;-69
2023/04/22 00:30:15;;;;;;;9.20;5.57;;;;;;;18.08;32.48;101124.88;5002995;28;96800;-70
2023/04/22 00:32:41;;;;;;;7.75;5.03;;;;;;;18.04;32.45;101121.53;5006770;28;97254;-70
2023/04/22 00:35:08;;;;;;;12.43;5.47;;;;;;;17.99;32.47;101122.75;5018185;28;99028;-69
2023/04/22 00:37:35;;;;;;;8.95;5.22;;;;;;;17.88;32.56;101121.59;5001695;27;99031;-70
2023/04/22 00:40:03;;;;;;;8.73;5.15;;;;;;;17.96;32.64;101121.13;5004099;28;96829;-69
2023/04/22 00:42:30;;;;;;;10.93;5.38;;;;;;;18.08;32.62;101122.22;5008084;28;96815;-70
2023/04/22 00:44:57;;;;;;;11.55;5.38;;;;;;;17.95;32.72;101108.72;5005688;28;98929;-70
2023/04/22 00:47:25;;;;;;;12.40;5.53;;;;;;;17.89;32.57;101111.78;5007090;28;99318;-69
2023/04/22 00:49:53;;;;;;;10.63;5.35;;;;;;;17.90;32.58;101117.03;5003543;28;96888;-70
2023/04/22 00:52:19;;;;;;;10.45;5.20;;;;;;;17.80;32.86;101107.81;5006639;28;97842;-69
2023/04/22 00:54:47;;;;;;;9.88;5.22;;;;;;;17.70;33.05;101111.16;5004927;28;102126;-70
2023/04/22 00:57:14;;;;;;;7.28;4.90;;;;;;;17.82;32.82;101116.63;5013058;28;98845;-70
2023/04/22 00:59:42;;;;;;;8.10;5.55;;;;;;;17.84;32.67;101109.38;5001969;28;99183;-69
2023/04/22 01:02:08;;;;;;;14.32;5.20;;;;;;;17.91;32.80;101108.06;5008540;28;97522;-69
2023/04/22 01:04:35;;;;;;;13.32;4.97;;;;;;;17.92;32.85;101100.88;5012871;28;99013;-70
2023/04/22 01:07:01;;;;;;;9.50;5.43;;;;;;;18.04;32.40;101101.97;4999168;28;99196;-70
2023/04/22 01:09:28;;;;;;;7.90;4.78;;;;;;;18.00;32.40;101097.75;5011462;28;96892;-70
2023/04/22 01:11:55;;;;;;;10.70;5.13;;;;;;;17.82;32.82;101100.59;5005241;28;97372;-69
2023/04/22 01:14:24;;;;;;;12.23;5.38;;;;;;;17.85;32.83;101105.72;5000390;28;99031;-69
2023/04/22 01:16:52;;;;;;;7.78;5.22;;;;;;;17.76;32.87;101098.28;5012641;28;99020;-69
2023/04/22 01:19:19;;;;;;;11.88;5.10;;;;;;;17.83;32.88;101099.63;5017276;28;96759;-69
2023/04/22 01:21:47;;;;;;;8.43;4.95;;;;;;;17.75;32.73;101098.34;4999659;28;96886;-69
2023/04/22 01:24:14;;;;;;;14.82;5.30;;;;;;;17.60;32.77;101099.22;5007528;28;99961;-70
2023/04/22 01:26:44;;;;;;;9.63;5.32;;;;;;;17.54;33.14;101095.09;5006862;28;98902;-70
2023/04/22 01:29:17;;;;;;;7.53;4.95;;;;;;;17.61;33.07;101096.50;5006867;28;96811;-69
2023/04/22 01:31:44;;;;;;;9.73;5.47;;;;;;;17.58;33.11;101095.81;5003067;28;97193;-69
2023/04/22 01:34:10;;;;;;;11.57;5.78;;;;;;;17.42;33.26;101099.38;4994665;28;99099;-69
2023/04/22 01:36:37;;;;;;;10.57;5.13;;;;;;;17.54;32.81;101093.31;5007172;28;98819;-70
2023/04/22 01:39:04;;;;;;;8.82;4.93;;;;;;;17.46;33.39;101092.00;5014506;28;96923;-70
2023/04/22 01:41:32;;;;;;;8.43;5.47;;;;;;;17.53;33.09;101093.38;5001317;28;96988;-70
2023/04/22 01:44:00;;;;;;;9.05;5.03;;;;;;;17.61;33.02;101082.28;5008833;28;100682;-70
2023/04/22 01:46:26;;;;;;;7.72;5.72;;;;;;;17.46;32.93;101090.22;5006440;28;101404;-70
2023/04/22 01:48:52;;;;;;;10.18;5.82;;;;;;;17.51;32.88;101079.28;5006262;28;97195;-69
2023/04/22 01:51:20;;;;;;;8.93;5.53;;;;;;;17.50;32.99;101082.91;5012105;28;96920;-69
2023/04/22 01:53:47;;;;;;;10.88;5.20;;;;;;;17.37;33.35;101079.22;5002341;28;98418;-70
2023/04/22 01:56:13;;;;;;;7.22;5.50;;;;;;;17.38;33.24;101079.13;5013838;28;99359;-70
2023/04/22 01:58:41;;;;;;;15.02;6.53;;;;;;;17.21;33.68;101073.03;5011493;28;97157;-69
2023/04/22 02:01:09;;;;;;;10.57;6.00;;;;;;;17.37;33.35;101077.41;5004297;28;98321;-70
2023/04/22 02:03:35;;;;;;;8.82;5.72;;;;;;;17.41;33.21;101062.06;5000069;28;99269;-70
2023/04/22 02:06:02;;;;;;;8.82;5.80;;;;;;;17.34;33.45;101061.53;4999343;28;99405;-71
2023/04/22 02:08:28;;;;;;;10.35;5.60;;;;;;;17.32;33.49;101062.59;4997999;28;97136;-72
2023/04/22 02:10:55;;;;;;;9.45;5.85;;;;;;;17.12;33.62;101056.63;5007536;28;98104;-72
2023/04/22 02:13:22;;;;;;;8.18;5.40;;;;;;;17.13;33.91;101060.16;4998548;28;98920;-71
2023/04/22 02:15:49;;;;;;;6.95;5.05;;;;;;;17.22;33.54;101056.06;5005562;28;99386;-71
2023/04/22 02:18:16;;;;;;;9.35;6.05;;;;;;;17.22;33.42;101053.38;4994734;28;98936;-70
2023/04/22 02:20:43;;;;;;;9.77;5.43;;;;;;;17.42;33.41;101051.28;4993863;28;96929;-70
2023/04/22 02:23:10;;;;;;;8.70;5.18;;;;;;;17.53;33.23;101047.97;5004745;28;99287;-70
2023/04/22 02:25:36;;;;;;;7.72;5.40;;;;;;;17.47;32.97;101043.84;5009691;28;98792;-71
2023/04/22 02:31:26;;;;;;;10.35;5.50;;;;;;;17.25;33.38;101045.22;4955038;28;98881;-70
2023/04/22 02:33:52;;;;;;;8.82;5.55;;;;;;;17.31;33.44;101039.50;4953049;28;99087;-70
2023/04/22 02:36:19;;;;;;;10.27;5.80;;;;;;;17.28;33.51;101040.53;4969099;28;97732;-69
2023/04/22 02:38:45;;;;;;;8.60;5.30;;;;;;;17.14;33.79;101044.00;4969433;28;97406;-70
2023/04/22 02:41:12;;;;;;;8.77;5.25;;;;;;;17.25;33.64;101034.53;4967437;28;97018;-71
2023/04/22 02:43:40;;;;;;;12.80;6.13;;;;;;;17.32;33.42;101034.09;4967253;28;98954;-71
2023/04/22 02:46:06;;;;;;;12.65;6.50;;;;;;;17.22;33.65;101032.03;4969166;28;100019;-69
2023/04/22 02:48:34;;;;;;;10.43;5.75;;;;;;;17.26;33.65;101031.78;4969068;28;96931;-70
2023/04/22 02:51:01;;;;;;;11.32;5.63;;;;;;;17.17;33.76;101034.97;4969896;28;96910;-69
2023/04/22 02:53:28;;;;;;;8.70;5.63;;;;;;;17.09;33.78;101030.06;4969607;28;99253;-69
2023/04/22 02:55:54;;;;;;;9.23;5.43;;;;;;;17.20;33.79;101033.94;4962274;28;98610;-71
2023/04/22 02:58:20;;;;;;;9.13;5.85;;;;;;;16.96;34.07;101034.41;4968431;28;97060;-69
2023/04/22 03:00:47;;;;;;;11.82;6.03;;;;;;;16.85;34.40;101030.63;4961442;28;97821;-70
2023/04/22 03:03:14;;;;;;;7.95;5.22;;;;;;;16.93;34.21;101033.72;4967591;28;99633;-70
2023/04/22 03:05:41;;;;;;;11.10;5.93;;;;;;;16.90;34.34;101034.75;4969218;28;98952;-70
2023/04/22 03:08:08;;;;;;;17.05;5.85;;;;;;;16.74;34.66;101037.41;4964975;28;98866;-70
2023/04/22 03:10:35;;;;;;;10.95;6.15;;;;;;;16.76;34.62;101032.00;4962332;28;99071;-69
2023/04/22 03:13:01;;;;;;;9.35;5.68;;;;;;;16.62;34.70;101030.09;4962803;28;98917;-70
2023/04/22 03:15:28;;;;;;;9.57;5.45;;;;;;;16.84;34.69;101024.44;4962874;28;98931;-69
2023/04/22 03:17:54;;;;;;;9.38;5.53;;;;;;;16.82;34.44;101025.44;4966287;28;97663;-70
2023/04/22 03:20:20;;;;;;;14.00;6.50;;;;;;;16.54;35.03;101023.47;4962953;28;97229;-70
2023/04/22 03:22:48;;;;;;;15.85;6.15;;;;;;;16.90;34.55;101017.88;4965962;28;101702;-69
2023/04/22 03:25:15;;;;;;;11.82;5.55;;;;;;;16.82;34.57;101026.31;4959339;28;100901;-69
2023/04/22 03:27:41;;;;;;;11.48;6.13;;;;;;;16.53;34.82;101035.09;4965775;28;98925;-70
2023/04/22 03:30:08;;;;;;;10.07;5.32;;;;;;;16.61;34.74;101027.53;4963655;28;98982;-70
2023/04/22 03:32:34;;;;;;;12.88;6.60;;;;;;;16.70;34.53;101027.00;4953498;28;102135;-70
2023/04/22 03:35:01;;;;;;;11.77;6.28;;;;;;;16.57;34.73;101025.94;4967250;28;100546;-69
2023/04/22 03:37:28;;;;;;;9.75;5.93;;;;;;;16.75;34.44;101024.94;4962530;28;97375;-69
2023/04/22 03:39:55;;;;;;;10.85;6.75;;;;;;;16.71;34.53;101028.75;4965748;28;97051;-70
2023/04/22 03:42:22;;;;;;;12.70;6.10;;;;;;;16.69;34.47;101028.81;4963901;28;101458;-70
2023/04/22 03:44:48;;;;;;;12.57;6.00;;;;;;;16.44;35.04;101036.44;4964391;28;98621;-70
2023/04/22 03:47:15;;;;;;;10.40;5.82;;;;;;;16.56;34.77;101034.91;4964765;28;97317;-69
2023/04/22 03:49:41;;;;;;;8.80;6.15;;;;;;;16.41;34.90;101025.94;4962814;28;99233;-69
2023/04/22 03:52:07;;;;;;;14.05;5.70;;;;;;;16.52;35.00;101033.34;4967687;28;99332;-69
2023/04/22 03:54:34;;;;;;;13.52;6.25;;;;;;;16.51;35.07;101032.50;4963349;28;99226;-69
2023/04/22 03:57:02;;;;;;;14.27;6.35;;;;;;;16.44;35.16;101030.25;4965007;28;96841;-69
2023/04/22 03:59:28;;;;;;;9.55;6.25;;;;;;;16.12;35.76;101035.53;4963485;28;96890;-68
2023/04/22 04:01:55;;;;;;;10.45;5.90;;;;;;;16.37;35.22;101032.38;4965503;28;99608;-69
2023/04/22 04:04:22;;;;;;;11.65;5.88;;;;;;;16.15;35.64;101035.34;4966461;28;98837;-70
2023/04/22 04:06:48;;;;;;;10.63;6.70;;;;;;;16.14;35.94;101039.00;4968548;28;96853;-70
2023/04/22 04:09:15;;;;;;;10.77;5.95;;;;;;;16.29;35.67;101030.13;4962599;28;97760;-70
2023/04/22 04:11:41;;;;;;;10.38;6.05;;;;;;;16.30;35.45;101029.19;4966733;28;98802;-70
2023/04/22 04:14:09;;;;;;;10.98;6.43;;;;;;;16.31;35.68;101030.06;4967999;28;98871;-70
2023/04/22 04:16:36;;;;;;;10.32;7.13;;;;;;;16.15;35.85;101035.34;4968712;28;97076;-70
2023/04/22 04:19:02;;;;;;;11.10;6.05;;;;;;;16.17;36.38;101033.47;4963713;28;98101;-69
2023/04/22 04:21:32;;;;;;;12.15;6.72;;;;;;;16.41;36.13;101025.94;4968806;28;99335;-70
2023/04/22 04:23:58;;;;;;;13.75;6.47;;;;;;;16.58;35.72;101031.22;4968135;28;99112;-69
2023/04/22 04:26:26;;;;;;;9.63;6.25;;;;;;;16.72;35.34;101033.13;4968697;28;96822;-69
2023/04/22 04:28:52;;;;;;;13.32;6.65;;;;;;;16.65;35.22;101026.41;4961042;28;97489;-69
2023/04/22 04:31:20;;;;;;;10.50;5.85;;;;;;;16.61;35.62;101030.19;4967583;28;98893;-69
2023/04/22 04:33:46;;;;;;;12.23;6.68;;;;;;;16.62;35.30;101026.56;4965844;28;98737;-70
2023/04/22 04:36:14;;;;;;;13.23;6.75;;;;;;;16.43;35.78;101026.72;4966301;28;97262;-70
2023/04/22 04:38:40;;;;;;;12.98;6.45;;;;;;;16.53;35.80;101029.75;4962609;28;96903;-72
2023/04/22 04:41:08;;;;;;;12.23;6.25;;;;;;;16.58;35.81;101027.69;4963547;28;99280;-71
2023/04/22 04:43:35;;;;;;;16.15;6.80;;;;;;;16.65;35.68;101031.75;4963210;28;98055;-70
2023/04/22 04:46:01;;;;;;;13.52;6.68;;;;;;;16.69;35.32;101030.63;4964416;28;97241;-70
2023/04/22 04:48:29;;;;;;;12.05;6.88;;;;;;;16.74;35.47;101029.41;4965180;28;99828;-70
2023/04/22 04:50:57;;;;;;;13.68;7.40;;;;;;;16.63;36.00;101030.97;4960138;28;100366;-70
2023/04/22 04:53:24;;;;;;;15.77;6.65;;;;;;;16.76;35.42;101037.34;4968007;28;98870;-69
2023/04/22 04:55:50;;;;;;;14.45;6.43;;;;;;;16.74;35.32;101029.41;4963337;28;97154;-67
2023/04/22 04:58:16;;;;;;;13.13;7.07;;;;;;;16.45;35.71;101037.31;4961096;28;96795;-69
2023/04/22 05:00:43;;;;;;;14.93;7.18;;;;;;;16.66;35.63;101033.47;4961007;28;98949;-69
2023/04/22 05:03:09;;;;;;;12.15;7.18;;;;;;;16.64;35.88;101030.03;4965269;28;99286;-69
2023/04/22 05:05:37;;;;;;;13.27;7.10;;;;;;;16.80;35.39;101033.56;4964652;28;98353;-70
2023/04/22 05:08:03;;;;;;;13.57;6.72;;;;;;;16.67;35.47;101036.03;4966168;28;96875;-69
2023/04/22 05:10:30;;;;;;;14.18;7.15;;;;;;;16.83;35.36;101028.03;4967816;28;99056;-69
2023/04/22 05:12:56;;;;;;;13.02;7.10;;;;;;;16.73;35.39;101032.19;4965775;28;101746;-69
2023/04/22 05:15:23;;;;;;;19.05;7.43;;;;;;;16.78;35.51;101032.78;4970219;28;96850;-70
2023/04/22 05:17:49;;;;;;;13.05;7.55;;;;;;;17.23;34.96;101028.41;4969044;28;97826;-70
2023/04/22 05:20:15;;;;;;;15.30;7.32;;;;;;;17.12;34.93;101029.06;4968985;28;98943;-71
2023/04/22 05:22:44;;;;;;;9.63;6.10;;;;;;;17.32;34.53;101030.56;4966963;28;99021;-71
2023/04/22 05:25:11;;;;;;;12.48;7.18;;;;;;;17.31;34.40;101024.34;4963887;28;97276;-71
2023/04/22 05:27:38;;;;;;;13.05;7.05;;;;;;;17.25;35.01;101029.19;4968726;28;98638;-71
2023/04/22 05:30:06;;;;;;;11.20;6.60;;;;;;;17.35;34.50;101027.69;4972748;28;97911;-71
2023/04/22 05:32:32;;;;;;;13.60;7.55;;;;;;;17.56;34.19;101034.44;4967874;28;101467;-71
2023/04/22 05:34:59;;;;;;;12.43;7.32;;;;;;;17.62;33.91;101027.88;4966650;28;98184;-71
2023/04/22 05:37:25;;;;;;;13.30;7.07;;;;;;;17.83;33.67;101029.28;4967350;28;96905;-70
2023/04/22 05:39:53;;;;;;;12.85;8.70;;;;;;;17.68;33.81;101030.19;4960842;28;99487;-70
2023/04/22 05:42:20;;;;;;;15.35;7.57;;;;;;;17.66;33.76;101024.06;4966822;28;98982;-71
2023/04/22 05:44:46;;;;;;;15.95;7.57;;;;;;;18.01;33.68;101032.63;4965282;28;96908;-70
2023/04/22 05:47:13;;;;;;;13.38;7.50;;;;;;;17.92;33.64;101034.91;4970191;28;96974;-70
2023/04/22 05:49:39;;;;;;;12.52;7.05;;;;;;;18.13;33.44;101039.88;4965502;28;99225;-69
2023/04/22 05:52:06;;;;;;;13.13;7.35;;;;;;;18.30;32.89;101039.69;4968860;28;99931;-69
2023/04/22 05:54:32;;;;;;;12.65;7.55;;;;;;;18.20;33.06;101035.88;4970240;28;96727;-70
2023/04/22 05:57:01;;;;;;;15.65;7.43;;;;;;;18.22;32.93;101031.28;4971174;28;97177;-71
2023/04/22 05:59:28;;;;;;;16.80;8.18;;;;;;;18.30;33.03;101031.69;4969885;28;98407;-70
2023/04/22 06:01:55;;;;;;;14.32;7.40;;;;;;;18.46;32.87;101037.75;4972899;28;99078;-69
2023/04/22 06:04:21;;;;;;;11.32;7.38;;;;;;;18.21;32.96;101048.28;4969245;28;97357;-70
2023/04/22 06:06:48;;;;;;;13.95;7.75;;;;;;;18.16;33.03;101034.34;4965210;28;96916;-70
2023/04/22 06:09:15;;;;;;;16.05;7.57;;;;;;;18.45;32.83;101036.03;4969979;28;99720;-70
2023/04/22 06:11:41;;;;;;;15.30;7.32;;;;;;;18.54;32.66;101039.94;4972795;28;99430;-70
2023/04/22 06:14:09;;;;;;;11.68;7.03;;;;;;;18.53;32.77;101039.09;4973098;28;97359;-69
2023/04/22 06:16:35;;;;;;;14.60;7.40;;;;;;;18.69;32.32;101034.53;4961595;28;97508;-70
2023/04/22 06:19:02;;;;;;;12.38;7.07;;;;;;;18.91;32.29;101043.81;4967814;28;98030;-70
2023/04/22 06:21:28;;;;;;;12.95;7.63;;;;;;;19.02;32.18;101030.59;4965051;28;99410;-70
2023/04/22 06:23:55;;;;;;;12.93;7.28;;;;;;;18.78;32.05;101037.53;4965288;28;96922;-69
2023/04/22 06:26:21;;;;;;;12.32;7.13;;;;;;;19.18;31.64;101038.44;4963440;28;96783;-70
2023/04/22 06:28:49;;;;;;;9.13;6.45;;;;;;;19.46;31.21;101041.03;4967362;28;99300;-69
2023/04/22 06:31:20;;;;;;;14.13;7.40;;;;;;;19.76;30.99;101038.94;4960615;28;99300;-69
2023/04/22 06:33:46;;;;;;;13.35;7.22;;;;;;;19.46;31.12;101033.88;4967514;28;96995;-69
2023/04/22 06:36:16;;;;;;;13.75;7.75;;;;;;;19.77;31.00;101031.75;4962217;28;98303;-69
2023/04/22 06:38:42;;;;;;;16.20;7.28;;;;;;;19.69;30.74;101034.13;4964451;28;98871;-69
2023/04/22 06:41:09;;;;;;;13.32;6.65;;;;;;;19.68;31.16;101035.09;4968418;28;98144;-70
2023/04/22 06:43:35;;;;;;;17.88;8.02;;;;;;;19.50;31.21;101035.38;4963303;28;98887;-70
2023/04/22 06:46:02;;;;;;;13.32;7.97;;;;;;;19.47;31.13;101027.53;4963017;28;98810;-70
2023/04/22 06:48:31;;;;;;;14.02;7.40;;;;;;;19.78;31.14;101030.78;4960125;28;101508;-69
2023/04/22 06:50:57;;;;;;;12.50;7.35;;;;;;;20.37;30.23;101033.81;4966708;28;98691;-72
2023/04/22 06:53:24;;;;;;;18.35;7.80;;;;;;;20.58;29.93;101021.53;4963788;28;96806;-71
2023/04/22 06:55:52;;;;;;;16.88;7.68;;;;;;;20.66;29.85;101028.06;4962883;28;96860;-70
2023/04/22 06:58:18;;;;;;;15.00;7.90;;;;;;;20.62;29.67;101023.88;4965795;28;100900;-71
2023/04/22 07:00:45;;;;;;;12.15;7.65;;;;;;;20.50;29.58;101021.22;4965556;28;99659;-70
2023/04/22 07:03:11;;;;;;;12.27;7.65;;;;;;;20.47;29.69;101024.13;4962953;28;96936;-70
2023/04/22 07:05:39;;;;;;;13.75;7.30;;;;;;;20.27;30.23;101021.03;4968223;28;97502;-71
2023/04/22 07:08:05;;;;;;;11.88;6.95;;;;;;;20.43;30.14;101020.81;4964666;28;98990;-70
2023/04/22 07:10:32;;;;;;;15.05;7.43;;;;;;;20.72;29.93;101021.38;4960660;28;101710;-71
2023/04/22 07:12:58;;;;;;;13.15;7.82;;;;;;;21.36;29.34;101019.28;4959197;28;97151;-71
2023/04/22 07:15:25;;;;;;;12.95;7.03;;;;;;;21.68;28.25;101020.34;4961410;28;96851;-70
2023/04/22 07:17:52;;;;;;;10.85;7.32;;;;;;;21.52;28.38;101019.84;4959360;28;99682;-70
2023/04/22 07:20:18;;;;;;;11.23;7.38;;;;;;;21.67;28.47;101025.84;4960585;28;99839;-69
2023/04/22 07:22:46;;;;;;;19.75;7.65;;;;;;;21.70;28.30;101025.63;4964252;28;97107;-70
2023/04/22 07:25:12;;;;;;;13.70;7.03;;;;;;;21.41;28.53;101027.84;4961679;28;98805;-70
2023/04/22 07:27:39;;;;;;;16.20;7.20;;;;;;;21.54;28.66;101025.94;4957140;28;101040;-71
2023/04/22 07:30:08;;;;;;;11.95;7.13;;;;;;;21.64;28.41;101024.25;4965040;28;97813;-72
2023/04/22 07:32:34;;;;;;;12.45;7.13;;;;;;;21.43;28.60;101025.91;4963390;28;97654;-72
2023/04/22 07:35:01;;;;;;;11.05;7.20;;;;;;;21.62;28.36;101023.50;4961273;28;96821;-71
2023/04/22 07:37:27;;;;;;;16.00;6.90;;;;;;;21.82;28.25;101025.53;4952568;28;99089;-70
2023/04/22 07:39:55;;;;;;;15.85;6.70;;;;;;;22.41;27.41;101025.34;4960255;28;99136;-71
2023/04/22 07:42:21;;;;;;;11.85;7.22;;;;;;;21.90;27.46;101019.53;4956590;28;96923;-72
2023/04/22 07:44:48;;;;;;;13.73;7.30;;;;;;;22.32;27.46;101023.38;4958988;28;97355;-71
2023/04/22 07:47:15;;;;;;;10.65;6.57;;;;;;;22.77;27.06;101020.69;4961820;28;99409;-70
2023/04/22 07:49:42;;;;;;;10.90;6.60;;;;;;;22.50;27.58;101018.38;4959495;28;97506;-70
2023/04/22 07:52:08;;;;;;;13.35;7.25;;;;;;;22.94;26.81;101006.66;4964153;28;97073;-70
2023/04/22 07:54:35;;;;;;;18.27;6.88;;;;;;;22.93;26.80;101005.81;4955185;28;99328;-70
2023/04/22 07:57:03;;;;;;;10.65;6.97;;;;;;;23.16;26.53;101003.03;4960889;28;99402;-70
2023/04/22 07:59:29;;;;;;;11.23;6.53;;;;;;;22.64;26.77;101008.16;4962843;28;98848;-71
2023/04/22 08:01:55;;;;;;;13.43;7.15;;;;;;;22.69;27.09;101001.56;4963872;28;97573;-70
2023/04/22 08:04:23;;;;;;;9.90;6.35;;;;;;;23.16;26.54;100989.56;4960403;28;97048;-71
2023/04/22 08:06:49;;;;;;;11.48;6.60;;;;;;;22.79;26.74;100989.06;4959081;28;99156;-70
2023/04/22 08:09:16;;;;;;;13.43;6.85;;;;;;;22.65;26.74;100979.38;4958127;28;99051;-70
2023/04/22 08:11:42;;;;;;;10.95;6.10;;;;;;;22.74;27.00;100983.22;4965702;28;97139;-70
2023/04/22 08:14:10;;;;;;;13.32;6.70;;;;;;;22.97;26.53;100980.31;4969651;28;96802;-71
2023/04/22 08:16:37;;;;;;;13.02;6.30;;;;;;;23.21;26.48;100988.19;4963595;28;99456;-72
2023/04/22 08:19:04;;;;;;;10.45;6.07;;;;;;;23.31;26.30;100974.75;4957048;28;98297;-71
2023/04/22 08:21:31;;;;;;;9.57;5.70;;;;;;;23.20;26.51;100980.22;4954874;28;98429;-71
2023/04/22 08:23:58;;;;;;;11.50;6.95;;;;;;;23.19;26.43;100978.50;4955175;28;98739;-70
2023/04/22 08:26:27;;;;;;;16.83;6.60;;;;;;;23.31;26.47;100972.06;4952544;28;98681;-71
2023/04/22 08:28:54;;;;;;;11.15;6.28;;;;;;;23.31;26.76;100980.16;4958452;28;98066;-72
2023/04/22 08:31:22;;;;;;;12.65;6.45;;;;;;;23.31;26.25;100972.06;4965977;28;96886;-71
2023/04/22 08:33:49;;;;;;;9.55;5.78;;;;;;;23.21;25.94;100971.16;4960719;28;98972;-70
2023/04/22 08:36:16;;;;;;;10.15;6.00;;;;;;;23.61;25.93;100966.78;4963436;28;99568;-72
2023/04/22 08:38:42;;;;;;;10.82;6.07;;;;;;;24.03;25.65;100967.56;4957964;28;98747;-70
2023/04/22 08:41:10;;;;;;;12.43;5.95;;;;;;;23.83;25.59;100965.75;4955773;28;97270;-71
2023/04/22 08:43:36;;;;;;;14.13;6.25;;;;;;;24.21;25.42;100974.09;4955007;28;98221;-71
2023/04/22 08:46:03;;;;;;;14.32;5.82;;;;;;;23.97;25.40;100962.72;4953110;28;99710;-71
2023/04/22 08:48:32;;;;;;;9.88;5.50;;;;;;;23.90;25.58;100971.47;4960311;28;97618;-72
2023/04/22 08:51:00;;;;;;;12.60;6.10;;;;;;;23.81;25.37;100974.00;4963012;28;97347;-70
2023/04/22 08:53:26;;;;;;;11.32;5.32;;;;;;;24.00;25.57;100965.16;4963141;28;97220;-72
2023/04/22 08:55:56;;;;;;;11.85;6.20;;;;;;;24.21;25.29;100963.28;4961373;28;98403;-72
2023/04/22 08:58:22;;;;;;;16.00;5.78;;;;;;;24.36;25.31;100965.59;4955124;28;98640;-71
2023/04/22 09:00:50;;;;;;;11.52;6.18;;;;;;;24.57;25.12;100961.81;4960754;28;99209;-71
2023/04/22 09:03:17;;;;;;;10.32;5.28;;;;;;;24.65;24.75;100974.63;4965899;28;97352;-70
2023/04/22 09:05:47;;;;;;;8.98;4.97;;;;;;;24.15;25.27;100965.66;4957162;28;98439;-71
2023/04/22 09:08:13;;;;;;;9.77;4.82;;;;;;;24.11;25.69;100965.06;4959732;28;101810;-71
2023/04/22 09:10:40;;;;;;;9.13;5.47;;;;;;;24.22;25.75;100967.66;4961741;28;98456;-72
2023/04/22 09:13:07;;;;;;;13.50;5.85;;;;;;;24.13;25.60;100964.91;4964189;28;99624;-72
2023/04/22 09:15:34;;;;;;;13.77;5.50;;;;;;;24.12;25.72;100961.38;4960490;28;99047;-70
2023/04/22 09:18:02;;;;;;;14.68;5.75;;;;;;;24.06;26.25;100958.34;4957826;28;98887;-71
2023/04/22 09:20:30;;;;;;;12.48;5.10;;;;;;;23.96;26.29;100952.91;4960931;28;98450;-71
2023/04/22 09:23:02;;;;;;;12.35;5.50;;;;;;;24.15;26.08;100946.75;4963218;28;97504;-71
2023/04/22 09:25:29;;;;;;;7.38;4.75;;;;;;;24.45;25.75;100948.56;4959727;28;98513;-72
2023/04/22 09:27:57;;;;;;;11.73;5.20;;;;;;;24.17;26.08;100942.06;4958170;28;99830;-71
2023/04/22 09:30:24;;;;;;;10.45;5.00;;;;;;;24.30;25.89;100934.59;4965426;28;96923;-71
2023/04/22 09:32:55;;;;;;;10.45;5.00;;;;;;;24.66;25.68;100941.22;4963088;28;97957;-70
2023/04/22 09:35:29;;;;;;;7.97;4.72;;;;;;;24.84;25.00;100939.53;4957423;28;99165;-70
2023/04/22 09:37:56;;;;;;;8.23;5.43;;;;;;;24.60;25.12;100930.97;4958751;28;98997;-73
2023/04/22 09:40:25;;;;;;;14.80;4.80;;;;;;;24.43;25.70;100937.91;4965556;28;97170;-73
2023/04/22 09:42:53;;;;;;;12.48;5.03;;;;;;;24.35;25.85;100929.63;4960817;28;96875;-74
2023/04/22 09:45:28;;;;;;;10.55;5.78;;;;;;;24.26;25.60;100924.22;4963623;28;98173;-74
2023/04/22 09:47:55;;;;;;;10.43;5.20;;;;;;;24.36;25.77;100917.84;4965326;28;96979;-72
2023/04/22 09:50:25;;;;;;;7.50;4.22;;;;;;;24.67;25.90;100920.47;4966283;28;97187;-73
2023/04/22 09:52:56;;;;;;;10.43;4.43;;;;;;;24.73;25.91;100919.91;4963527;28;97561;-72
2023/04/22 09:55:26;;;;;;;10.27;4.40;;;;;;;24.51;25.14;100910.19;4961029;28;99208;-73
2023/04/22 09:57:54;;;;;;;7.93;4.05;;;;;;;24.29;25.89;100894.22;4969991;28;99199;-73
2023/04/22 10:00:21;;;;;;;7.75;4.70;;;;;;;24.50;25.68;100909.34;4959511;28;96819;-72
2023/04/22 10:02:48;;;;;;;9.70;5.05;;;;;;;24.84;25.32;100901.69;4965859;28;98289;-74
2023/04/22 10:05:15;;;;;;;11.55;4.97;;;;;;;24.95;25.50;100906.13;4961246;28;99090;-73
2023/04/22 10:07:42;;;;;;;8.82;4.45;;;;;;;24.84;25.21;100903.53;4962720;28;101728;-76
2023/04/22 10:10:09;;;;;;;9.63;4.32;;;;;;;24.70;25.28;100891.28;4960046;28;96854;-75
2023/04/22 10:12:38;;;;;;;10.30;4.45;;;;;;;24.93;25.31;100897.31;4963082;28;98912;-73
2023/04/22 10:15:06;;;;;;;7.50;4.78;;;;;;;25.11;24.93;100897.44;4966952;28;99410;-72
2023/04/22 10:17:36;;;;;;;10.27;4.45;;;;;;;24.95;24.99;100893.47;4965194;28;99370;-73
2023/04/22 10:20:07;;;;;;;5.72;3.65;;;;;;;24.66;24.74;100889.88;4968660;28;96856;-73
2023/04/22 10:22:35;;;;;;;8.70;4.40;;;;;;;24.65;24.74;100893.56;4963751;28;97017;-72
2023/04/22 10:25:02;;;;;;;8.52;4.40;;;;;;;24.76;24.22;100887.16;4964187;28;99009;-74
2023/04/22 10:27:28;;;;;;;10.15;4.63;;;;;;;24.88;24.41;100875.22;4968479;28;99176;-72
2023/04/22 10:29:57;;;;;;;9.65;4.07;;;;;;;24.92;24.72;100874.84;4967904;28;97116;-72
2023/04/22 10:32:26;;;;;;;11.82;4.07;;;;;;;24.70;23.66;100874.22;4969436;28;96804;-74
2023/04/22 10:35:17;;;;;;;8.30;4.10;;;;;;;24.48;23.99;100864.56;4962360;28;97660;-75
2023/04/22 10:37:46;;;;;;;9.48;4.30;;;;;;;24.68;24.53;100855.44;4970565;28;97783;-74
2023/04/22 10:40:16;;;;;;;9.50;4.18;;;;;;;24.76;24.00;100855.59;4969259;28;96890;-72
2023/04/22 10:42:57;;;;;;;6.80;4.03;;;;;;;24.80;23.68;100858.88;4971489;28;97011;-73
2023/04/22 10:45:25;;;;;;;6.32;4.03;;;;;;;24.60;24.24;100863.44;4970113;28;97883;-73
2023/04/22 10:47:52;;;;;;;6.13;3.90;;;;;;;24.52;23.60;100849.78;4969981;28;99553;-72
2023/04/22 10:50:22;;;;;;;9.07;4.00;;;;;;;24.82;23.56;100848.75;4970498;28;96720;-73
2023/04/22 10:52:51;;;;;;;12.85;4.18;;;;;;;24.90;23.92;100846.22;4971348;28;97013;-73
2023/04/22 10:55:22;;;;;;;7.00;3.90;;;;;;;25.02;23.36;100851.34;4968844;28;98998;-73
2023/04/22 10:57:50;;;;;;;8.95;4.38;;;;;;;24.92;22.64;100839.69;4970626;28;98862;-73
2023/04/22 11:00:27;;;;;;;9.20;4.47;;;;;;;24.98;22.24;100847.22;4971812;28;96839;-72
2023/04/22 11:03:06;;;;;;;17.13;4.10;;;;;;;24.82;21.99;100846.06;4970275;28;97914;-73
2023/04/22 11:05:34;;;;;;;7.57;3.55;;;;;;;24.62;21.88;100853.31;4970459;28;99383;-72
2023/04/22 11:08:03;;;;;;;8.88;4.00;;;;;;;24.60;22.43;100844.53;4969805;28;98864;-75
2023/04/22 11:10:40;;;;;;;7.97;4.00;;;;;;;24.76;22.25;100833.97;4970537;28;96799;-74
2023/04/22 11:13:21;;;;;;;5.30;3.60;;;;;;;24.99;22.33;100834.56;4965993;28;96751;-75
2023/04/22 11:15:50;;;;;;;7.90;4.63;;;;;;;25.06;22.18;100818.63;4969526;28;98885;-73
2023/04/22 11:18:20;;;;;;;6.95;4.10;;;;;;;25.18;22.72;100836.38;4970788;28;100064;-72
2023/04/22 11:20:48;;;;;;;7.68;4.40;;;;;;;25.02;22.66;100828.84;4963272;28;96769;-74
2023/04/22 11:23:22;;;;;;;6.60;4.03;;;;;;;24.95;22.52;100819.63;4970659;28;96899;-74